sensor_id;sensor_type;location;lat;lon;timestamp;pressure;altitude;pressure_sealevel;temperature;humidity
69402;BME280;56589;51.992;5.924;2023-11-21T00:01:21;100480.50;;;7.45;88.00
69402;BME280;56589;51.992;5.924;2023-11-21T00:03:47;100486.50;;;7.47;88.45
69402;BME280;56589;51.992;5.924;2023-11-21T00:06:13;100487.25;;;7.49;88.28
69402;BME280;56589;51.992;5.924;2023-11-21T00:08:38;100486.41;;;7.49;88.36
69402;BME280;56589;51.992;5.924;2023-11-21T00:11:04;100486.41;;;7.49;88.24
69402;BME280;56589;51.992;5.924;2023-11-21T00:13:30;100488.94;;;7.50;88.22
69402;BME280;56589;51.992;5.924;2023-11-21T00:15:56;100494.25;;;7.49;88.14
69402;BME280;56589;51.992;5.924;2023-11-21T00:18:25;100497.69;;;7.49;88.66
69402;BME280;56589;51.992;5.924;2023-11-21T00:20:50;100495.09;;;7.49;88.29
69402;BME280;56589;51.992;5.924;2023-11-21T00:23:16;100490.78;;;7.48;88.50
69402;BME280;56589;51.992;5.924;2023-11-21T00:25:42;100501.16;;;7.50;88.20
69402;BME280;56589;51.992;5.924;2023-11-21T00:28:08;100502.06;;;7.49;88.36
69402;BME280;56589;51.992;5.924;2023-11-21T00:30:33;100496.00;;;7.48;88.65
69402;BME280;56589;51.992;5.924;2023-11-21T00:32:59;100499.63;;;7.46;88.18
69402;BME280;56589;51.992;5.924;2023-11-21T00:35:28;100502.22;;;7.46;88.23
69402;BME280;56589;51.992;5.924;2023-11-21T00:37:53;100505.69;;;7.46;88.25
69402;BME280;56589;51.992;5.924;2023-11-21T00:40:19;100500.47;;;7.46;88.18
69402;BME280;56589;51.992;5.924;2023-11-21T00:42:45;100502.91;;;7.49;88.56
69402;BME280;56589;51.992;5.924;2023-11-21T00:45:11;100501.25;;;7.48;88.58
69402;BME280;56589;51.992;5.924;2023-11-21T00:47:36;100508.88;;;7.51;88.43
69402;BME280;56589;51.992;5.924;2023-11-21T00:50:03;100508.88;;;7.51;88.48
69402;BME280;56589;51.992;5.924;2023-11-21T00:52:31;100510.50;;;7.54;88.67
69402;BME280;56589;51.992;5.924;2023-11-21T00:54:57;100513.88;;;7.56;88.63
69402;BME280;56589;51.992;5.924;2023-11-21T00:57:23;100518.91;;;7.59;88.86
69402;BME280;56589;51.992;5.924;2023-11-21T00:59:49;100524.91;;;7.61;89.05
69402;BME280;56589;51.992;5.924;2023-11-21T01:02:14;100528.38;;;7.61;88.61
69402;BME280;56589;51.992;5.924;2023-11-21T01:04:40;100535.25;;;7.63;88.97
69402;BME280;56589;51.992;5.924;2023-11-21T01:07:06;100538.63;;;7.65;89.06
69402;BME280;56589;51.992;5.924;2023-11-21T01:09:34;100538.56;;;7.66;89.23
69402;BME280;56589;51.992;5.924;2023-11-21T01:12:00;100538.47;;;7.68;89.42
69402;BME280;56589;51.992;5.924;2023-11-21T01:14:26;100545.22;;;7.72;89.41
69402;BME280;56589;51.992;5.924;2023-11-21T01:16:52;100543.34;;;7.74;89.01
69402;BME280;56589;51.992;5.924;2023-11-21T01:19:18;100539.72;;;7.76;89.32
69402;BME280;56589;51.992;5.924;2023-11-21T01:21:44;100550.94;;;7.78;89.04
69402;BME280;56589;51.992;5.924;2023-11-21T01:24:10;100549.91;;;7.81;89.14
69402;BME280;56589;51.992;5.924;2023-11-21T01:26:38;100561.13;;;7.83;89.45
69402;BME280;56589;51.992;5.924;2023-11-21T01:29:04;100562.81;;;7.84;89.45
69402;BME280;56589;51.992;5.924;2023-11-21T01:31:30;100568.78;;;7.86;89.18
69402;BME280;56589;51.992;5.924;2023-11-21T01:33:56;100565.25;;;7.87;89.35
69402;BME280;56589;51.992;5.924;2023-11-21T01:36:21;100573.00;;;7.88;89.37
69402;BME280;56589;51.992;5.924;2023-11-21T01:38:47;100571.22;;;7.89;89.45
69402;BME280;56589;51.992;5.924;2023-11-21T01:41:13;100569.44;;;7.89;89.59
69402;BME280;56589;51.992;5.924;2023-11-21T01:43:41;100567.72;;;7.90;89.39
69402;BME280;56589;51.992;5.924;2023-11-21T01:46:08;100572.75;;;7.93;89.29
69402;BME280;56589;51.992;5.924;2023-11-21T01:48:34;100570.03;;;7.95;89.59
69402;BME280;56589;51.992;5.924;2023-11-21T01:51:00;100567.25;;;7.98;89.57
69402;BME280;56589;51.992;5.924;2023-11-21T01:53:27;100571.47;;;8.00;89.27
69402;BME280;56589;51.992;5.924;2023-11-21T01:55:55;100567.91;;;8.01;89.61
69402;BME280;56589;51.992;5.924;2023-11-21T01:58:22;100570.47;;;8.03;89.20
69402;BME280;56589;51.992;5.924;2023-11-21T02:00:50;100568.59;;;8.05;89.64
69402;BME280;56589;51.992;5.924;2023-11-21T02:03:16;100570.28;;;8.06;89.44
69402;BME280;56589;51.992;5.924;2023-11-21T02:05:42;100573.00;;;8.04;89.47
69402;BME280;56589;51.992;5.924;2023-11-21T02:08:08;100579.06;;;8.05;89.05
69402;BME280;56589;51.992;5.924;2023-11-21T02:10:34;100573.00;;;8.04;89.22
69402;BME280;56589;51.992;5.924;2023-11-21T02:12:59;100581.75;;;8.03;89.28
69402;BME280;56589;51.992;5.924;2023-11-21T02:15:25;100580.94;;;8.03;89.22
69402;BME280;56589;51.992;5.924;2023-11-21T02:17:54;100575.69;;;8.03;88.97
69402;BME280;56589;51.992;5.924;2023-11-21T02:20:21;100580.09;;;8.02;89.22
69402;BME280;56589;51.992;5.924;2023-11-21T02:22:52;100583.59;;;8.01;89.27
69402;BME280;56589;51.992;5.924;2023-11-21T02:25:18;100582.75;;;8.01;89.43
69402;BME280;56589;51.992;5.924;2023-11-21T02:27:44;100591.44;;;8.01;89.01
69402;BME280;56589;51.992;5.924;2023-11-21T02:30:11;100588.09;;;7.99;89.18
69402;BME280;56589;51.992;5.924;2023-11-21T02:32:37;100590.69;;;7.99;89.21
69402;BME280;56589;51.992;5.924;2023-11-21T02:35:04;100591.63;;;7.98;89.22
69402;BME280;56589;51.992;5.924;2023-11-21T02:37:30;100597.69;;;7.99;89.30
69402;BME280;56589;51.992;5.924;2023-11-21T02:39:58;100601.16;;;7.99;89.53
69402;BME280;56589;51.992;5.924;2023-11-21T02:42:24;100595.09;;;7.99;89.62
69402;BME280;56589;51.992;5.924;2023-11-21T02:44:50;100597.81;;;7.97;89.56
69402;BME280;56589;51.992;5.924;2023-11-21T02:47:15;100595.09;;;7.99;89.62
69402;BME280;56589;51.992;5.924;2023-11-21T02:49:41;100597.69;;;7.99;90.08
69402;BME280;56589;51.992;5.924;2023-11-21T02:52:07;100602.00;;;8.00;89.96
69402;BME280;56589;51.992;5.924;2023-11-21T02:54:33;100602.84;;;8.00;89.87
69402;BME280;56589;51.992;5.924;2023-11-21T02:57:01;100604.53;;;8.01;90.08
69402;BME280;56589;51.992;5.924;2023-11-21T02:59:27;100598.44;;;8.01;90.32
69402;BME280;56589;51.992;5.924;2023-11-21T03:01:52;100594.16;;;8.00;90.26
69402;BME280;56589;51.992;5.924;2023-11-21T03:04:18;100595.84;;;8.01;90.33
69402;BME280;56589;51.992;5.924;2023-11-21T03:06:44;100599.38;;;8.00;90.41
69402;BME280;56589;51.992;5.924;2023-11-21T03:09:10;100602.00;;;8.00;90.14
69402;BME280;56589;51.992;5.924;2023-11-21T03:11:36;100602.94;;;7.99;90.39
69402;BME280;56589;51.992;5.924;2023-11-21T03:14:04;100601.16;;;7.99;90.21
69402;BME280;56589;51.992;5.924;2023-11-21T03:16:31;100602.00;;;8.00;90.15
69402;BME280;56589;51.992;5.924;2023-11-21T03:18:57;100603.69;;;8.01;89.98
69402;BME280;56589;51.992;5.924;2023-11-21T03:21:23;100601.34;;;7.96;90.11
69402;BME280;56589;51.992;5.924;2023-11-21T03:23:48;100604.97;;;7.94;90.31
69402;BME280;56589;51.992;5.924;2023-11-21T03:26:14;100606.81;;;7.92;90.24
69402;BME280;56589;51.992;5.924;2023-11-21T03:28:40;100603.44;;;7.89;90.22
69402;BME280;56589;51.992;5.924;2023-11-21T03:31:08;100614.75;;;7.90;90.12
69402;BME280;56589;51.992;5.924;2023-11-21T03:33:37;100618.28;;;7.89;90.27
69402;BME280;56589;51.992;5.924;2023-11-21T03:36:03;100620.16;;;7.87;90.15
69402;BME280;56589;51.992;5.924;2023-11-21T03:38:29;100628.16;;;7.84;90.06
69402;BME280;56589;51.992;5.924;2023-11-21T03:40:55;100625.56;;;7.84;90.66
69402;BME280;56589;51.992;5.924;2023-11-21T03:43:21;100624.63;;;7.85;90.30
69402;BME280;56589;51.992;5.924;2023-11-21T03:45:46;100631.44;;;7.87;90.76
69402;BME280;56589;51.992;5.924;2023-11-21T03:48:15;100623.50;;;7.89;90.44
69402;BME280;56589;51.992;5.924;2023-11-21T03:50:41;100624.28;;;7.91;90.50
69402;BME280;56589;51.992;5.924;2023-11-21T03:53:06;100618.13;;;7.92;90.39
69402;BME280;56589;51.992;5.924;2023-11-21T03:55:32;100621.47;;;7.94;90.70
69402;BME280;56589;51.992;5.924;2023-11-21T03:57:58;100623.16;;;7.95;90.43
69402;BME280;56589;51.992;5.924;2023-11-21T04:00:24;100630.00;;;7.98;90.43
69402;BME280;56589;51.992;5.924;2023-11-21T04:02:50;100626.47;;;7.99;90.45
69402;BME280;56589;51.992;5.924;2023-11-21T04:05:20;100627.22;;;8.01;90.85
69402;BME280;56589;51.992;5.924;2023-11-21T04:07:45;100632.38;;;8.02;90.84
69402;BME280;56589;51.992;5.924;2023-11-21T04:10:11;100635.75;;;8.04;90.80
69402;BME280;56589;51.992;5.924;2023-11-21T04:12:37;100637.59;;;8.02;90.61
69402;BME280;56589;51.992;5.924;2023-11-21T04:15:04;100645.44;;;8.02;90.37
69402;BME280;56589;51.992;5.924;2023-11-21T04:17:30;100654.97;;;8.03;90.34
69402;BME280;56589;51.992;5.924;2023-11-21T04:19:56;100643.59;;;8.04;90.84
69402;BME280;56589;51.992;5.924;2023-11-21T04:22:24;100654.88;;;8.05;90.80
69402;BME280;56589;51.992;5.924;2023-11-21T04:24:50;100659.19;;;8.06;90.78
69402;BME280;56589;51.992;5.924;2023-11-21T04:27:16;100654.88;;;8.05;90.42
69402;BME280;56589;51.992;5.924;2023-11-21T04:29:41;100663.56;;;8.05;90.71
69402;BME280;56589;51.992;5.924;2023-11-21T04:32:07;100663.56;;;8.05;90.77
69402;BME280;56589;51.992;5.924;2023-11-21T04:34:33;100672.16;;;8.07;90.44
69402;BME280;56589;51.992;5.924;2023-11-21T04:36:59;100672.16;;;8.07;90.46
69402;BME280;56589;51.992;5.924;2023-11-21T04:39:27;100676.53;;;8.07;90.85
69402;BME280;56589;51.992;5.924;2023-11-21T04:41:53;100677.47;;;8.06;90.64
69402;BME280;56589;51.992;5.924;2023-11-21T04:44:18;100677.56;;;8.04;90.60
69402;BME280;56589;51.992;5.924;2023-11-21T04:46:44;100683.75;;;8.03;90.77
69402;BME280;56589;51.992;5.924;2023-11-21T04:49:10;100685.50;;;8.03;90.83
69402;BME280;56589;51.992;5.924;2023-11-21T04:51:36;100685.50;;;8.03;90.95
69402;BME280;56589;51.992;5.924;2023-11-21T04:54:02;100691.56;;;8.03;91.05
69402;BME280;56589;51.992;5.924;2023-11-21T04:56:30;100698.50;;;8.04;91.09
69402;BME280;56589;51.992;5.924;2023-11-21T04:58:56;100697.56;;;8.05;90.66
69402;BME280;56589;51.992;5.924;2023-11-21T05:01:21;100699.25;;;8.06;90.64
69402;BME280;56589;51.992;5.924;2023-11-21T05:03:47;100702.69;;;8.07;90.62
69402;BME280;56589;51.992;5.924;2023-11-21T05:06:13;100709.78;;;8.05;90.75
69402;BME280;56589;51.992;5.924;2023-11-21T05:08:39;100712.50;;;8.03;90.81
69402;BME280;56589;51.992;5.924;2023-11-21T05:11:05;100711.66;;;8.03;90.57
69402;BME280;56589;51.992;5.924;2023-11-21T05:13:33;100712.66;;;8.00;90.80
69402;BME280;56589;51.992;5.924;2023-11-21T05:15:59;100713.66;;;7.98;90.53
69402;BME280;56589;51.992;5.924;2023-11-21T05:18:25;100709.28;;;7.98;90.97
69402;BME280;56589;51.992;5.924;2023-11-21T05:20:51;100715.50;;;7.96;90.64
69402;BME280;56589;51.992;5.924;2023-11-21T05:23:17;100714.66;;;7.95;90.56
69402;BME280;56589;51.992;5.924;2023-11-21T05:25:43;100722.59;;;7.94;90.91
69402;BME280;56589;51.992;5.924;2023-11-21T05:28:08;100720.06;;;7.92;90.97
69402;BME280;56589;51.992;5.924;2023-11-21T05:30:37;100725.31;;;7.92;90.79
69402;BME280;56589;51.992;5.924;2023-11-21T05:33:02;100726.22;;;7.91;90.99
69402;BME280;56589;51.992;5.924;2023-11-21T05:35:28;100728.84;;;7.91;90.91
69402;BME280;56589;51.992;5.924;2023-11-21T05:37:54;100735.75;;;7.92;90.76
69402;BME280;56589;51.992;5.924;2023-11-21T05:40:20;100745.38;;;7.92;90.70
69402;BME280;56589;51.992;5.924;2023-11-21T05:42:45;100740.06;;;7.93;90.79
69402;BME280;56589;51.992;5.924;2023-11-21T05:45:11;100744.34;;;7.94;90.96
69402;BME280;56589;51.992;5.924;2023-11-21T05:47:40;100745.19;;;7.95;90.75
69402;BME280;56589;51.992;5.924;2023-11-21T05:50:08;100746.13;;;7.94;91.19
69402;BME280;56589;51.992;5.924;2023-11-21T05:52:35;100752.09;;;7.96;91.05
69402;BME280;56589;51.992;5.924;2023-11-21T05:55:01;100760.81;;;7.96;90.72
69402;BME280;56589;51.992;5.924;2023-11-21T05:57:26;100759.94;;;7.96;91.08
69402;BME280;56589;51.992;5.924;2023-11-21T05:59:52;100763.44;;;7.96;90.82
69402;BME280;56589;51.992;5.924;2023-11-21T06:02:18;100769.50;;;7.97;90.87
69402;BME280;56589;51.992;5.924;2023-11-21T06:04:46;100774.66;;;7.98;91.08
69402;BME280;56589;51.992;5.924;2023-11-21T06:07:12;100773.81;;;7.98;91.17
69402;BME280;56589;51.992;5.924;2023-11-21T06:09:38;100778.09;;;7.99;91.00
69402;BME280;56589;51.992;5.924;2023-11-21T06:12:04;100773.72;;;7.99;90.87
69402;BME280;56589;51.992;5.924;2023-11-21T06:14:30;100780.53;;;8.02;91.38
69402;BME280;56589;51.992;5.924;2023-11-21T06:16:56;100781.41;;;8.02;91.23
69402;BME280;56589;51.992;5.924;2023-11-21T06:19:22;100792.72;;;8.03;91.14
69402;BME280;56589;51.992;5.924;2023-11-21T06:21:50;100785.72;;;8.03;91.35
69402;BME280;56589;51.992;5.924;2023-11-21T06:24:16;100788.31;;;8.03;90.86
69402;BME280;56589;51.992;5.924;2023-11-21T06:26:42;100797.00;;;8.04;91.36
69402;BME280;56589;51.992;5.924;2023-11-21T06:29:07;100790.09;;;8.03;91.38
69402;BME280;56589;51.992;5.924;2023-11-21T06:31:33;100800.56;;;8.03;91.37
69402;BME280;56589;51.992;5.924;2023-11-21T06:33:59;100803.06;;;8.04;91.45
69402;BME280;56589;51.992;5.924;2023-11-21T06:36:25;100798.84;;;8.02;91.36
69402;BME280;56589;51.992;5.924;2023-11-21T06:38:55;100808.41;;;8.03;91.33
69402;BME280;56589;51.992;5.924;2023-11-21T06:41:21;100812.78;;;8.02;91.14
69402;BME280;56589;51.992;5.924;2023-11-21T06:43:47;100817.13;;;8.02;91.05
69402;BME280;56589;51.992;5.924;2023-11-21T06:46:13;100816.25;;;8.03;91.50
69402;BME280;56589;51.992;5.924;2023-11-21T06:48:38;100816.25;;;8.03;91.13
69402;BME280;56589;51.992;5.924;2023-11-21T06:51:05;100824.00;;;8.04;91.30
69402;BME280;56589;51.992;5.924;2023-11-21T06:53:31;100818.69;;;8.06;91.40
69402;BME280;56589;51.992;5.924;2023-11-21T06:55:59;100826.44;;;8.07;91.65
69402;BME280;56589;51.992;5.924;2023-11-21T06:58:25;100825.53;;;8.08;91.64
69402;BME280;56589;51.992;5.924;2023-11-21T07:00:51;100824.59;;;8.09;91.25
69402;BME280;56589;51.992;5.924;2023-11-21T07:03:17;100823.75;;;8.09;91.36
69402;BME280;56589;51.992;5.924;2023-11-21T07:05:42;100828.91;;;8.10;91.44
69402;BME280;56589;51.992;5.924;2023-11-21T07:08:08;100832.34;;;8.11;91.40
69402;BME280;56589;51.992;5.924;2023-11-21T07:10:34;100834.03;;;8.12;91.77
69402;BME280;56589;51.992;5.924;2023-11-21T07:13:03;100853.19;;;8.12;91.58
69402;BME280;56589;51.992;5.924;2023-11-21T07:15:29;100850.56;;;8.12;91.40
69402;BME280;56589;51.992;5.924;2023-11-21T07:17:55;100856.56;;;8.14;91.46
69402;BME280;56589;51.992;5.924;2023-11-21T07:20:20;100865.28;;;8.15;91.55
69402;BME280;56589;51.992;5.924;2023-11-21T07:22:46;100871.25;;;8.17;91.88
69402;BME280;56589;51.992;5.924;2023-11-21T07:25:12;100876.31;;;8.20;91.68
69402;BME280;56589;51.992;5.924;2023-11-21T07:27:38;100882.38;;;8.21;91.46
69402;BME280;56589;51.992;5.924;2023-11-21T07:30:08;100881.41;;;8.23;91.63
69402;BME280;56589;51.992;5.924;2023-11-21T07:32:35;100883.09;;;8.24;91.63
69402;BME280;56589;51.992;5.924;2023-11-21T07:35:01;100887.25;;;8.28;91.49
69402;BME280;56589;51.992;5.924;2023-11-21T07:37:27;100888.09;;;8.29;91.77
69402;BME280;56589;51.992;5.924;2023-11-21T07:39:53;100882.75;;;8.30;91.75
69402;BME280;56589;51.992;5.924;2023-11-21T07:42:18;100889.69;;;8.31;91.83
69402;BME280;56589;51.992;5.924;2023-11-21T07:44:44;100890.47;;;8.33;91.60
69402;BME280;56589;51.992;5.924;2023-11-21T07:47:12;100897.38;;;8.34;91.82
69402;BME280;56589;51.992;5.924;2023-11-21T07:49:38;100901.59;;;8.37;91.94
69402;BME280;56589;51.992;5.924;2023-11-21T07:52:04;100898.88;;;8.38;91.71
69402;BME280;56589;51.992;5.924;2023-11-21T07:54:30;100909.22;;;8.41;92.14
69402;BME280;56589;51.992;5.924;2023-11-21T07:56:56;100911.72;;;8.43;91.84
69402;BME280;56589;51.992;5.924;2023-11-21T07:59:21;100910.75;;;8.46;91.85
69402;BME280;56589;51.992;5.924;2023-11-21T08:01:47;100920.19;;;8.48;91.77
69402;BME280;56589;51.992;5.924;2023-11-21T08:04:15;100922.72;;;8.50;92.21
69402;BME280;56589;51.992;5.924;2023-11-21T08:06:41;100926.88;;;8.54;92.11
69402;BME280;56589;51.992;5.924;2023-11-21T08:09:07;100927.63;;;8.56;91.87
69402;BME280;56589;51.992;5.924;2023-11-21T08:11:33;100936.16;;;8.59;92.11
69402;BME280;56589;51.992;5.924;2023-11-21T08:13:59;100939.63;;;8.60;92.01
69402;BME280;56589;51.992;5.924;2023-11-21T08:16:24;100946.63;;;8.59;92.02
69402;BME280;56589;51.992;5.924;2023-11-21T08:18:50;100948.41;;;8.59;91.75
69402;BME280;56589;51.992;5.924;2023-11-21T08:21:19;100951.78;;;8.61;92.23
69402;BME280;56589;51.992;5.924;2023-11-21T08:23:44;100953.38;;;8.63;92.33
69402;BME280;56589;51.992;5.924;2023-11-21T08:26:10;100958.63;;;8.63;92.20
69402;BME280;56589;51.992;5.924;2023-11-21T08:28:36;100971.56;;;8.66;91.92
69402;BME280;56589;51.992;5.924;2023-11-21T08:31:01;100971.47;;;8.68;92.00
69402;BME280;56589;51.992;5.924;2023-11-21T08:33:27;100979.31;;;8.68;92.06
69402;BME280;56589;51.992;5.924;2023-11-21T08:35:53;100984.47;;;8.69;92.28
69402;BME280;56589;51.992;5.924;2023-11-21T08:38:21;100982.78;;;8.68;92.31
69402;BME280;56589;51.992;5.924;2023-11-21T08:40:47;100983.47;;;8.72;92.18
69402;BME280;56589;51.992;5.924;2023-11-21T08:43:13;100980.00;;;8.72;92.21
69402;BME280;56589;51.992;5.924;2023-11-21T08:45:39;100983.28;;;8.75;92.47
69402;BME280;56589;51.992;5.924;2023-11-21T08:48:05;100990.91;;;8.80;92.53
69402;BME280;56589;51.992;5.924;2023-11-21T08:50:31;100987.97;;;8.86;92.44
69402;BME280;56589;51.992;5.924;2023-11-21T08:52:56;100993.19;;;8.86;92.24
69402;BME280;56589;51.992;5.924;2023-11-21T08:55:25;100994.81;;;8.88;92.19
69402;BME280;56589;51.992;5.924;2023-11-21T08:57:50;100990.25;;;8.92;92.45
69402;BME280;56589;51.992;5.924;2023-11-21T09:00:17;100998.88;;;8.94;92.14
69402;BME280;56589;51.992;5.924;2023-11-21T09:02:43;100997.03;;;8.96;92.07
69402;BME280;56589;51.992;5.924;2023-11-21T09:05:09;101006.38;;;9.00;92.00
69402;BME280;56589;51.992;5.924;2023-11-21T09:07:37;101007.19;;;9.02;91.81
69402;BME280;56589;51.992;5.924;2023-11-21T09:10:05;101010.47;;;9.06;91.51
69402;BME280;56589;51.992;5.924;2023-11-21T09:12:35;101015.78;;;9.04;91.41
69402;BME280;56589;51.992;5.924;2023-11-21T09:15:01;101015.88;;;9.03;91.57
69402;BME280;56589;51.992;5.924;2023-11-21T09:17:27;101023.72;;;9.03;91.28
69402;BME280;56589;51.992;5.924;2023-11-21T09:19:53;101035.06;;;9.03;91.34
69402;BME280;56589;51.992;5.924;2023-11-21T09:22:19;101030.66;;;9.04;91.67
69402;BME280;56589;51.992;5.924;2023-11-21T09:24:45;101036.75;;;9.04;91.14
69402;BME280;56589;51.992;5.924;2023-11-21T09:27:10;101039.44;;;9.03;91.38
69402;BME280;56589;51.992;5.924;2023-11-21T09:29:39;101047.41;;;9.01;91.45
69402;BME280;56589;51.992;5.924;2023-11-21T09:32:05;101045.69;;;9.00;91.52
69402;BME280;56589;51.992;5.924;2023-11-21T09:34:31;101053.47;;;9.02;91.61
69402;BME280;56589;51.992;5.924;2023-11-21T09:36:57;101051.50;;;9.05;92.00
69402;BME280;56589;51.992;5.924;2023-11-21T09:39:22;101057.53;;;9.07;92.01
69402;BME280;56589;51.992;5.924;2023-11-21T09:41:50;101063.53;;;9.09;91.75
69402;BME280;56589;51.992;5.924;2023-11-21T09:44:18;101071.16;;;9.14;92.09
69402;BME280;56589;51.992;5.924;2023-11-21T09:46:59;101069.88;;;9.21;92.15
69402;BME280;56589;51.992;5.924;2023-11-21T09:49:26;101071.38;;;9.27;92.09
69402;BME280;56589;51.992;5.924;2023-11-21T09:51:55;101083.28;;;9.32;92.09
69402;BME280;56589;51.992;5.924;2023-11-21T09:54:21;101083.28;;;9.32;92.02
69402;BME280;56589;51.992;5.924;2023-11-21T09:56:47;101089.19;;;9.36;92.10
69402;BME280;56589;51.992;5.924;2023-11-21T09:59:15;101094.38;;;9.37;91.59
69402;BME280;56589;51.992;5.924;2023-11-21T10:01:42;101097.66;;;9.41;91.91
69402;BME280;56589;51.992;5.924;2023-11-21T10:04:10;101093.13;;;9.44;91.84
69402;BME280;56589;51.992;5.924;2023-11-21T10:06:38;101092.84;;;9.49;92.60
69402;BME280;56589;51.992;5.924;2023-11-21T10:09:04;101100.31;;;9.57;92.73
69402;BME280;56589;51.992;5.924;2023-11-21T10:11:31;101099.69;;;9.67;92.57
69402;BME280;56589;51.992;5.924;2023-11-21T10:13:59;101105.28;;;9.77;92.62
69402;BME280;56589;51.992;5.924;2023-11-21T10:16:27;101110.88;;;9.87;92.42
69402;BME280;56589;51.992;5.924;2023-11-21T10:18:54;101103.56;;;9.92;91.90
69402;BME280;56589;51.992;5.924;2023-11-21T10:21:25;101108.81;;;9.92;91.55
69402;BME280;56589;51.992;5.924;2023-11-21T10:23:53;101115.84;;;9.91;92.06
69402;BME280;56589;51.992;5.924;2023-11-21T10:26:20;101113.31;;;9.90;91.54
69402;BME280;56589;51.992;5.924;2023-11-21T10:28:55;101121.09;;;9.91;92.15
69402;BME280;56589;51.992;5.924;2023-11-21T10:31:24;101130.84;;;9.89;91.85
69402;BME280;56589;51.992;5.924;2023-11-21T10:33:52;101128.13;;;9.91;91.66
69402;BME280;56589;51.992;5.924;2023-11-21T10:36:28;101128.03;;;9.92;91.89
69402;BME280;56589;51.992;5.924;2023-11-21T10:38:54;101123.72;;;9.91;92.11
69402;BME280;56589;51.992;5.924;2023-11-21T10:41:20;101125.34;;;9.94;92.25
69402;BME280;56589;51.992;5.924;2023-11-21T10:43:46;101125.06;;;9.98;92.17
69402;BME280;56589;51.992;5.924;2023-11-21T10:46:13;101130.16;;;10.01;91.92
69402;BME280;56589;51.992;5.924;2023-11-21T10:48:41;101137.94;;;10.03;92.08
69402;BME280;56589;51.992;5.924;2023-11-21T10:51:08;101136.16;;;10.03;91.43
69402;BME280;56589;51.992;5.924;2023-11-21T10:53:38;101144.28;;;9.99;91.50
69402;BME280;56589;51.992;5.924;2023-11-21T10:56:06;101142.41;;;10.01;91.83
69402;BME280;56589;51.992;5.924;2023-11-21T10:58:35;101148.59;;;10.00;91.54
69402;BME280;56589;51.992;5.924;2023-11-21T11:01:05;101150.38;;;9.99;91.65
69402;BME280;56589;51.992;5.924;2023-11-21T11:03:32;101151.97;;;10.02;91.46
69402;BME280;56589;51.992;5.924;2023-11-21T11:06:02;101156.47;;;10.00;91.30
69402;BME280;56589;51.992;5.924;2023-11-21T11:08:28;101162.13;;;9.92;91.26
69402;BME280;56589;51.992;5.924;2023-11-21T11:10:57;101169.56;;;9.84;90.92
69402;BME280;56589;51.992;5.924;2023-11-21T11:13:23;101177.88;;;9.76;91.33
69402;BME280;56589;51.992;5.924;2023-11-21T11:15:49;101180.81;;;9.70;91.22
69402;BME280;56589;51.992;5.924;2023-11-21T11:18:16;101189.97;;;9.63;91.13
69402;BME280;56589;51.992;5.924;2023-11-21T11:20:43;101197.22;;;9.58;91.72
69402;BME280;56589;51.992;5.924;2023-11-21T11:23:29;101192.22;;;9.54;91.61
69402;BME280;56589;51.992;5.924;2023-11-21T11:26:16;101192.53;;;9.47;91.59
69402;BME280;56589;51.992;5.924;2023-11-21T11:29:00;101192.72;;;9.44;91.74
69402;BME280;56589;51.992;5.924;2023-11-21T11:31:54;101194.41;;;9.45;92.31
69402;BME280;56589;51.992;5.924;2023-11-21T11:34:29;101203.94;;;9.46;92.40
69402;BME280;56589;51.992;5.924;2023-11-21T11:37:01;101200.31;;;9.49;92.07
69402;BME280;56589;51.992;5.924;2023-11-21T11:39:29;101204.78;;;9.47;92.11
69402;BME280;56589;51.992;5.924;2023-11-21T11:42:02;101205.88;;;9.43;92.21
69402;BME280;56589;51.992;5.924;2023-11-21T11:47:14;101207.13;;;9.36;92.50
69402;BME280;56589;51.992;5.924;2023-11-21T11:49:56;101213.06;;;9.39;92.66
69402;BME280;56589;51.992;5.924;2023-11-21T11:52:36;101215.59;;;9.41;92.70
69402;BME280;56589;51.992;5.924;2023-11-21T11:55:04;101216.63;;;9.38;92.71
69402;BME280;56589;51.992;5.924;2023-11-21T11:57:34;101220.94;;;9.39;92.49
69402;BME280;56589;51.992;5.924;2023-11-21T12:00:11;101219.91;;;9.42;92.53
69402;BME280;56589;51.992;5.924;2023-11-21T12:02:39;101221.59;;;9.43;92.69
69402;BME280;56589;51.992;5.924;2023-11-21T12:05:08;101226.78;;;9.44;92.47
69402;BME280;56589;51.992;5.924;2023-11-21T12:07:48;101220.53;;;9.47;93.22
69402;BME280;56589;51.992;5.924;2023-11-21T12:10:17;101230.84;;;9.50;92.42
69402;BME280;56589;51.992;5.924;2023-11-21T12:12:49;101234.38;;;9.49;92.48
69402;BME280;56589;51.992;5.924;2023-11-21T12:15:16;101242.25;;;9.49;92.37
69402;BME280;56589;51.992;5.924;2023-11-21T12:17:43;101238.03;;;9.46;92.30
69402;BME280;56589;51.992;5.924;2023-11-21T12:20:10;101246.06;;;9.43;92.40
69402;BME280;56589;51.992;5.924;2023-11-21T12:22:37;101248.91;;;9.39;92.38
69402;BME280;56589;51.992;5.924;2023-11-21T12:25:04;101249.75;;;9.39;92.64
69402;BME280;56589;51.992;5.924;2023-11-21T12:27:30;101254.28;;;9.36;92.04
69402;BME280;56589;51.992;5.924;2023-11-21T12:29:59;101262.41;;;9.31;92.73
69402;BME280;56589;51.992;5.924;2023-11-21T12:32:24;101266.03;;;9.29;92.32
69402;BME280;56589;51.992;5.924;2023-11-21T12:34:50;101272.41;;;9.23;92.76
69402;BME280;56589;51.992;5.924;2023-11-21T12:37:16;101275.09;;;9.21;92.54
69402;BME280;56589;51.992;5.924;2023-11-21T12:39:43;101268.25;;;9.19;92.62
69402;BME280;56589;51.992;5.924;2023-11-21T12:42:09;101285.72;;;9.18;92.65
69402;BME280;56589;51.992;5.924;2023-11-21T12:44:35;101283.25;;;9.15;93.30
69402;BME280;56589;51.992;5.924;2023-11-21T12:47:03;101281.47;;;9.16;93.08
69402;BME280;56589;51.992;5.924;2023-11-21T12:49:29;101283.34;;;9.14;93.28
69402;BME280;56589;51.992;5.924;2023-11-21T12:51:55;101277.00;;;9.18;92.80
69402;BME280;56589;51.992;5.924;2023-11-21T12:54:21;101286.50;;;9.20;93.26
69402;BME280;56589;51.992;5.924;2023-11-21T12:56:47;101284.72;;;9.21;92.54
69402;BME280;56589;51.992;5.924;2023-11-21T12:59:13;101297.06;;;9.19;92.82
69402;BME280;56589;51.992;5.924;2023-11-21T13:01:41;101281.56;;;9.14;92.72